sensor_id;sensor_type;location;lat;lon;timestamp;P1;durP1;ratioP1;P2;durP2;ratioP2
34924;SDS011;21130;51.728;8.748;2023-06-22T00:04:16;31.00;;;28.00;;
34924;SDS011;21130;51.728;8.748;2023-06-22T00:06:43;30.45;;;27.83;;
34924;SDS011;21130;51.728;8.748;2023-06-22T00:09:09;31.65;;;28.55;;
34924;SDS011;21130;51.728;8.748;2023-06-22T00:11:36;32.35;;;29.30;;
34924;SDS011;21130;51.728;8.748;2023-06-22T00:14:02;30.52;;;27.42;;
34924;SDS011;21130;51.728;8.748;2023-06-22T00:16:29;31.95;;;28.95;;
34924;SDS011;21130;51.728;8.748;2023-06-22T00:18:55;31.85;;;28.60;;
34924;SDS011;21130;51.728;8.748;2023-06-22T00:21:26;30.23;;;27.08;;
34924;SDS011;21130;51.728;8.748;2023-06-22T00:23:53;30.17;;;27.20;;
34924;SDS011;21130;51.728;8.748;2023-06-22T00:26:19;28.48;;;25.58;;
34924;SDS011;21130;51.728;8.748;2023-06-22T00:28:46;26.77;;;24.35;;
34924;SDS011;21130;51.728;8.748;2023-06-22T00:31:12;26.95;;;24.35;;
34924;SDS011;21130;51.728;8.748;2023-06-22T00:33:39;27.60;;;24.38;;
34924;SDS011;21130;51.728;8.748;2023-06-22T00:36:06;28.58;;;25.73;;
34924;SDS011;21130;51.728;8.748;2023-06-22T00:38:34;28.65;;;25.85;;
34924;SDS011;21130;51.728;8.748;2023-06-22T00:41:05;26.85;;;24.05;;
34924;SDS011;21130;51.728;8.748;2023-06-22T00:43:32;26.48;;;23.92;;
34924;SDS011;21130;51.728;8.748;2023-06-22T00:45:58;25.95;;;23.40;;
34924;SDS011;21130;51.728;8.748;2023-06-22T00:48:25;25.88;;;23.48;;
34924;SDS011;21130;51.728;8.748;2023-06-22T00:50:51;26.38;;;23.88;;
34924;SDS011;21130;51.728;8.748;2023-06-22T00:53:18;26.80;;;24.17;;
34924;SDS011;21130;51.728;8.748;2023-06-22T00:55:47;25.95;;;23.65;;
34924;SDS011;21130;51.728;8.748;2023-06-22T00:58:16;26.58;;;24.08;;
34924;SDS011;21130;51.728;8.748;2023-06-22T01:00:48;25.60;;;23.30;;
34924;SDS011;21130;51.728;8.748;2023-06-22T01:03:14;26.65;;;24.08;;
34924;SDS011;21130;51.728;8.748;2023-06-22T01:05:42;25.05;;;22.67;;
34924;SDS011;21130;51.728;8.748;2023-06-22T01:08:23;25.55;;;23.15;;
34924;SDS011;21130;51.728;8.748;2023-06-22T01:10:59;25.10;;;22.63;;
34924;SDS011;21130;51.728;8.748;2023-06-22T01:13:32;23.52;;;21.60;;
34924;SDS011;21130;51.728;8.748;2023-06-22T01:16:05;24.65;;;22.35;;
34924;SDS011;21130;51.728;8.748;2023-06-22T01:18:36;25.02;;;22.70;;
34924;SDS011;21130;51.728;8.748;2023-06-22T01:21:06;24.13;;;21.92;;
34924;SDS011;21130;51.728;8.748;2023-06-22T01:23:38;24.00;;;21.70;;
34924;SDS011;21130;51.728;8.748;2023-06-22T01:26:18;23.98;;;21.70;;
34924;SDS011;21130;51.728;8.748;2023-06-22T01:28:50;22.80;;;20.45;;
34924;SDS011;21130;51.728;8.748;2023-06-22T01:31:19;22.98;;;20.88;;
34924;SDS011;21130;51.728;8.748;2023-06-22T01:33:49;23.80;;;21.60;;
34924;SDS011;21130;51.728;8.748;2023-06-22T01:36:17;23.40;;;21.20;;
34924;SDS011;21130;51.728;8.748;2023-06-22T01:38:45;25.45;;;23.15;;
34924;SDS011;21130;51.728;8.748;2023-06-22T01:41:13;25.65;;;23.25;;
34924;SDS011;21130;51.728;8.748;2023-06-22T01:43:42;26.05;;;23.42;;
34924;SDS011;21130;51.728;8.748;2023-06-22T01:46:11;24.75;;;22.75;;
34924;SDS011;21130;51.728;8.748;2023-06-22T01:48:38;24.95;;;22.63;;
34924;SDS011;21130;51.728;8.748;2023-06-22T01:51:05;23.10;;;21.05;;
34924;SDS011;21130;51.728;8.748;2023-06-22T01:53:32;24.90;;;22.70;;
34924;SDS011;21130;51.728;8.748;2023-06-22T01:55:58;26.17;;;23.75;;
34924;SDS011;21130;51.728;8.748;2023-06-22T01:58:25;26.05;;;23.63;;
34924;SDS011;21130;51.728;8.748;2023-06-22T02:00:56;24.58;;;22.40;;
34924;SDS011;21130;51.728;8.748;2023-06-22T02:03:31;26.33;;;23.63;;
34924;SDS011;21130;51.728;8.748;2023-06-22T02:06:03;25.13;;;23.00;;
34924;SDS011;21130;51.728;8.748;2023-06-22T02:08:35;25.98;;;23.58;;
34924;SDS011;21130;51.728;8.748;2023-06-22T02:11:04;24.30;;;22.33;;
34924;SDS011;21130;51.728;8.748;2023-06-22T02:13:33;26.40;;;24.00;;
34924;SDS011;21130;51.728;8.748;2023-06-22T02:16:00;23.70;;;21.60;;
34924;SDS011;21130;51.728;8.748;2023-06-22T02:18:27;24.48;;;22.27;;
34924;SDS011;21130;51.728;8.748;2023-06-22T02:20:55;24.77;;;22.45;;
34924;SDS011;21130;51.728;8.748;2023-06-22T02:23:22;24.50;;;22.38;;
34924;SDS011;21130;51.728;8.748;2023-06-22T02:25:48;24.08;;;22.13;;
34924;SDS011;21130;51.728;8.748;2023-06-22T02:28:15;24.40;;;22.25;;
34924;SDS011;21130;51.728;8.748;2023-06-22T02:30:41;23.55;;;21.55;;
34924;SDS011;21130;51.728;8.748;2023-06-22T02:33:07;23.58;;;21.38;;
34924;SDS011;21130;51.728;8.748;2023-06-22T02:35:34;25.10;;;22.88;;
34924;SDS011;21130;51.728;8.748;2023-06-22T02:38:03;25.15;;;22.65;;
34924;SDS011;21130;51.728;8.748;2023-06-22T02:40:30;24.05;;;21.73;;
34924;SDS011;21130;51.728;8.748;2023-06-22T02:42:57;23.88;;;21.58;;
34924;SDS011;21130;51.728;8.748;2023-06-22T02:45:26;23.20;;;21.20;;
34924;SDS011;21130;51.728;8.748;2023-06-22T02:47:53;23.35;;;21.35;;
34924;SDS011;21130;51.728;8.748;2023-06-22T02:50:19;24.33;;;21.95;;
34924;SDS011;21130;51.728;8.748;2023-06-22T02:52:46;24.40;;;22.20;;
34924;SDS011;21130;51.728;8.748;2023-06-22T02:55:13;23.40;;;21.20;;
34924;SDS011;21130;51.728;8.748;2023-06-22T02:57:40;23.27;;;21.13;;
34924;SDS011;21130;51.728;8.748;2023-06-22T03:00:10;22.33;;;20.35;;
34924;SDS011;21130;51.728;8.748;2023-06-22T03:02:42;22.80;;;20.83;;
34924;SDS011;21130;51.728;8.748;2023-06-22T03:05:09;22.30;;;20.27;;
34924;SDS011;21130;51.728;8.748;2023-06-22T03:07:38;22.30;;;20.35;;
34924;SDS011;21130;51.728;8.748;2023-06-22T03:10:05;21.88;;;20.05;;
34924;SDS011;21130;51.728;8.748;2023-06-22T03:12:33;21.88;;;19.88;;
34924;SDS011;21130;51.728;8.748;2023-06-22T03:15:00;20.52;;;18.70;;
34924;SDS011;21130;51.728;8.748;2023-06-22T03:17:26;21.35;;;19.42;;
34924;SDS011;21130;51.728;8.748;2023-06-22T03:19:52;23.80;;;21.27;;
34924;SDS011;21130;51.728;8.748;2023-06-22T03:22:19;22.50;;;20.45;;
34924;SDS011;21130;51.728;8.748;2023-06-22T03:24:45;21.30;;;19.50;;
34924;SDS011;21130;51.728;8.748;2023-06-22T03:27:12;21.33;;;19.50;;
34924;SDS011;21130;51.728;8.748;2023-06-22T03:29:40;20.70;;;18.77;;
34924;SDS011;21130;51.728;8.748;2023-06-22T03:32:06;21.50;;;19.40;;
34924;SDS011;21130;51.728;8.748;2023-06-22T03:34:33;21.63;;;19.83;;
34924;SDS011;21130;51.728;8.748;2023-06-22T03:37:01;20.55;;;18.55;;
34924;SDS011;21130;51.728;8.748;2023-06-22T03:39:28;22.23;;;20.23;;
34924;SDS011;21130;51.728;8.748;2023-06-22T03:41:54;20.65;;;18.77;;
34924;SDS011;21130;51.728;8.748;2023-06-22T03:44:22;20.90;;;18.95;;
34924;SDS011;21130;51.728;8.748;2023-06-22T03:46:49;22.10;;;20.20;;
34924;SDS011;21130;51.728;8.748;2023-06-22T03:49:16;21.20;;;19.02;;
34924;SDS011;21130;51.728;8.748;2023-06-22T03:51:42;21.00;;;19.10;;
34924;SDS011;21130;51.728;8.748;2023-06-22T03:54:09;21.95;;;19.77;;
34924;SDS011;21130;51.728;8.748;2023-06-22T03:56:35;22.55;;;20.42;;
34924;SDS011;21130;51.728;8.748;2023-06-22T03:59:02;22.50;;;20.40;;
34924;SDS011;21130;51.728;8.748;2023-06-22T04:01:28;21.90;;;20.02;;
34924;SDS011;21130;51.728;8.748;2023-06-22T04:03:56;21.05;;;19.25;;
34924;SDS011;21130;51.728;8.748;2023-06-22T04:06:22;21.63;;;19.77;;
34924;SDS011;21130;51.728;8.748;2023-06-22T04:08:49;21.48;;;19.48;;
34924;SDS011;21130;51.728;8.748;2023-06-22T04:11:16;20.10;;;18.23;;
34924;SDS011;21130;51.728;8.748;2023-06-22T04:13:42;21.73;;;19.83;;
34924;SDS011;21130;51.728;8.748;2023-06-22T04:16:08;20.73;;;18.92;;
34924;SDS011;21130;51.728;8.748;2023-06-22T04:18:35;21.45;;;19.05;;
34924;SDS011;21130;51.728;8.748;2023-06-22T04:21:03;21.42;;;19.55;;
34924;SDS011;21130;51.728;8.748;2023-06-22T04:23:29;20.45;;;18.75;;
34924;SDS011;21130;51.728;8.748;2023-06-22T04:25:56;20.33;;;18.50;;
34924;SDS011;21130;51.728;8.748;2023-06-22T04:28:23;21.10;;;19.05;;
34924;SDS011;21130;51.728;8.748;2023-06-22T04:30:49;22.13;;;20.13;;
34924;SDS011;21130;51.728;8.748;2023-06-22T04:33:16;19.20;;;17.58;;
34924;SDS011;21130;51.728;8.748;2023-06-22T04:35:44;18.85;;;17.25;;
34924;SDS011;21130;51.728;8.748;2023-06-22T04:38:14;17.92;;;16.42;;
34924;SDS011;21130;51.728;8.748;2023-06-22T04:40:41;22.08;;;20.08;;
34924;SDS011;21130;51.728;8.748;2023-06-22T04:43:07;18.80;;;16.77;;
34924;SDS011;21130;51.728;8.748;2023-06-22T04:45:35;22.52;;;20.35;;
34924;SDS011;21130;51.728;8.748;2023-06-22T04:48:03;20.02;;;18.13;;
34924;SDS011;21130;51.728;8.748;2023-06-22T04:50:29;21.50;;;19.35;;
34924;SDS011;21130;51.728;8.748;2023-06-22T04:52:56;19.95;;;18.25;;
34924;SDS011;21130;51.728;8.748;2023-06-22T04:55:24;18.27;;;16.55;;
34924;SDS011;21130;51.728;8.748;2023-06-22T04:57:51;17.17;;;15.68;;
34924;SDS011;21130;51.728;8.748;2023-06-22T05:00:18;18.60;;;16.92;;
34924;SDS011;21130;51.728;8.748;2023-06-22T05:02:47;18.02;;;16.38;;
34924;SDS011;21130;51.728;8.748;2023-06-22T05:05:13;18.88;;;17.27;;
34924;SDS011;21130;51.728;8.748;2023-06-22T05:07:40;18.52;;;16.92;;
34924;SDS011;21130;51.728;8.748;2023-06-22T05:10:09;18.08;;;16.40;;
34924;SDS011;21130;51.728;8.748;2023-06-22T05:12:39;18.92;;;17.13;;
34924;SDS011;21130;51.728;8.748;2023-06-22T05:15:07;17.73;;;16.13;;
34924;SDS011;21130;51.728;8.748;2023-06-22T05:17:34;18.02;;;16.42;;
34924;SDS011;21130;51.728;8.748;2023-06-22T05:20:01;19.73;;;18.02;;
34924;SDS011;21130;51.728;8.748;2023-06-22T05:22:31;16.42;;;15.00;;
34924;SDS011;21130;51.728;8.748;2023-06-22T05:24:57;17.63;;;16.13;;
34924;SDS011;21130;51.728;8.748;2023-06-22T05:27:24;18.52;;;16.92;;
34924;SDS011;21130;51.728;8.748;2023-06-22T05:29:52;16.50;;;14.82;;
34924;SDS011;21130;51.728;8.748;2023-06-22T05:32:18;15.18;;;13.82;;
34924;SDS011;21130;51.728;8.748;2023-06-22T05:34:45;16.30;;;14.63;;
34924;SDS011;21130;51.728;8.748;2023-06-22T05:37:12;15.85;;;14.55;;
34924;SDS011;21130;51.728;8.748;2023-06-22T05:39:38;16.17;;;14.85;;
34924;SDS011;21130;51.728;8.748;2023-06-22T05:42:05;13.75;;;12.63;;
34924;SDS011;21130;51.728;8.748;2023-06-22T05:44:32;15.55;;;14.18;;
34924;SDS011;21130;51.728;8.748;2023-06-22T05:47:00;14.77;;;13.50;;
34924;SDS011;21130;51.728;8.748;2023-06-22T05:49:26;13.63;;;12.50;;
34924;SDS011;21130;51.728;8.748;2023-06-22T05:51:54;14.40;;;13.20;;
34924;SDS011;21130;51.728;8.748;2023-06-22T05:54:22;14.20;;;13.05;;
34924;SDS011;21130;51.728;8.748;2023-06-22T05:56:48;14.20;;;12.90;;
34924;SDS011;21130;51.728;8.748;2023-06-22T05:59:14;14.65;;;13.35;;
34924;SDS011;21130;51.728;8.748;2023-06-22T06:01:41;13.38;;;12.02;;
34924;SDS011;21130;51.728;8.748;2023-06-22T06:04:08;12.75;;;11.65;;
34924;SDS011;21130;51.728;8.748;2023-06-22T06:06:35;11.55;;;10.63;;
34924;SDS011;21130;51.728;8.748;2023-06-22T06:09:02;11.45;;;10.30;;
34924;SDS011;21130;51.728;8.748;2023-06-22T06:11:29;10.82;;;9.70;;
34924;SDS011;21130;51.728;8.748;2023-06-22T06:13:55;11.35;;;10.13;;
34924;SDS011;21130;51.728;8.748;2023-06-22T06:16:21;11.50;;;10.43;;
34924;SDS011;21130;51.728;8.748;2023-06-22T06:18:48;13.48;;;12.20;;
34924;SDS011;21130;51.728;8.748;2023-06-22T06:21:16;15.25;;;13.80;;
34924;SDS011;21130;51.728;8.748;2023-06-22T06:23:43;14.63;;;13.30;;
34924;SDS011;21130;51.728;8.748;2023-06-22T06:26:09;14.15;;;12.50;;
34924;SDS011;21130;51.728;8.748;2023-06-22T06:28:36;13.10;;;12.00;;
34924;SDS011;21130;51.728;8.748;2023-06-22T06:31:02;13.32;;;12.23;;
34924;SDS011;21130;51.728;8.748;2023-06-22T06:33:32;11.07;;;10.23;;
34924;SDS011;21130;51.728;8.748;2023-06-22T06:35:58;11.63;;;10.63;;
34924;SDS011;21130;51.728;8.748;2023-06-22T06:38:28;12.48;;;11.40;;
34924;SDS011;21130;51.728;8.748;2023-06-22T06:40:55;12.20;;;11.20;;
34924;SDS011;21130;51.728;8.748;2023-06-22T06:43:21;12.95;;;11.82;;
34924;SDS011;21130;51.728;8.748;2023-06-22T06:45:48;12.60;;;11.57;;
34924;SDS011;21130;51.728;8.748;2023-06-22T06:48:15;14.32;;;13.05;;
34924;SDS011;21130;51.728;8.748;2023-06-22T06:50:42;14.45;;;13.13;;
34924;SDS011;21130;51.728;8.748;2023-06-22T06:53:09;14.40;;;13.20;;
34924;SDS011;21130;51.728;8.748;2023-06-22T06:55:37;13.30;;;12.18;;
34924;SDS011;21130;51.728;8.748;2023-06-22T06:58:03;14.65;;;13.23;;
34924;SDS011;21130;51.728;8.748;2023-06-22T07:00:32;14.07;;;12.88;;
34924;SDS011;21130;51.728;8.748;2023-06-22T07:03:00;13.80;;;12.60;;
34924;SDS011;21130;51.728;8.748;2023-06-22T07:05:27;14.82;;;13.57;;
34924;SDS011;21130;51.728;8.748;2023-06-22T07:07:53;15.80;;;14.27;;
34924;SDS011;21130;51.728;8.748;2023-06-22T07:10:20;16.88;;;15.25;;
34924;SDS011;21130;51.728;8.748;2023-06-22T07:12:48;16.38;;;14.55;;
34924;SDS011;21130;51.728;8.748;2023-06-22T07:15:14;16.33;;;14.77;;
34924;SDS011;21130;51.728;8.748;2023-06-22T07:17:41;15.85;;;14.38;;
34924;SDS011;21130;51.728;8.748;2023-06-22T07:20:08;15.02;;;13.73;;
34924;SDS011;21130;51.728;8.748;2023-06-22T07:22:36;15.57;;;14.07;;
34924;SDS011;21130;51.728;8.748;2023-06-22T07:25:03;14.82;;;13.55;;
34924;SDS011;21130;51.728;8.748;2023-06-22T07:27:35;14.50;;;13.10;;
34924;SDS011;21130;51.728;8.748;2023-06-22T07:30:05;13.88;;;12.68;;
34924;SDS011;21130;51.728;8.748;2023-06-22T07:32:33;15.05;;;13.63;;
34924;SDS011;21130;51.728;8.748;2023-06-22T07:34:59;13.93;;;12.73;;
34924;SDS011;21130;51.728;8.748;2023-06-22T07:37:26;13.65;;;12.43;;
34924;SDS011;21130;51.728;8.748;2023-06-22T07:39:53;13.80;;;12.70;;
34924;SDS011;21130;51.728;8.748;2023-06-22T07:42:23;14.95;;;13.65;;
34924;SDS011;21130;51.728;8.748;2023-06-22T07:44:50;11.85;;;10.85;;
34924;SDS011;21130;51.728;8.748;2023-06-22T07:47:18;14.77;;;13.38;;
34924;SDS011;21130;51.728;8.748;2023-06-22T07:49:45;16.17;;;14.80;;
34924;SDS011;21130;51.728;8.748;2023-06-22T07:52:11;13.93;;;12.63;;
34924;SDS011;21130;51.728;8.748;2023-06-22T07:54:38;14.07;;;12.77;;
34924;SDS011;21130;51.728;8.748;2023-06-22T07:57:04;14.65;;;13.27;;
34924;SDS011;21130;51.728;8.748;2023-06-22T07:59:32;13.18;;;12.07;;
34924;SDS011;21130;51.728;8.748;2023-06-22T08:01:59;13.82;;;12.52;;
34924;SDS011;21130;51.728;8.748;2023-06-22T08:04:27;12.18;;;11.07;;
34924;SDS011;21130;51.728;8.748;2023-06-22T08:06:53;12.30;;;11.30;;
34924;SDS011;21130;51.728;8.748;2023-06-22T08:09:20;14.05;;;12.63;;
34924;SDS011;21130;51.728;8.748;2023-06-22T08:11:46;12.32;;;11.20;;
34924;SDS011;21130;51.728;8.748;2023-06-22T08:14:14;12.60;;;11.50;;
34924;SDS011;21130;51.728;8.748;2023-06-22T08:16:40;12.70;;;11.70;;
34924;SDS011;21130;51.728;8.748;2023-06-22T08:19:07;11.32;;;10.43;;
34924;SDS011;21130;51.728;8.748;2023-06-22T08:21:35;12.10;;;10.90;;
34924;SDS011;21130;51.728;8.748;2023-06-22T08:24:01;10.80;;;9.95;;
34924;SDS011;21130;51.728;8.748;2023-06-22T08:26:28;10.90;;;10.00;;
34924;SDS011;21130;51.728;8.748;2023-06-22T08:28:54;9.80;;;9.00;;
34924;SDS011;21130;51.728;8.748;2023-06-22T08:31:20;9.65;;;8.88;;
34924;SDS011;21130;51.728;8.748;2023-06-22T08:33:47;11.95;;;11.05;;
34924;SDS011;21130;51.728;8.748;2023-06-22T08:36:13;10.63;;;9.70;;
34924;SDS011;21130;51.728;8.748;2023-06-22T08:38:42;11.00;;;10.05;;
34924;SDS011;21130;51.728;8.748;2023-06-22T08:41:09;10.60;;;9.70;;
34924;SDS011;21130;51.728;8.748;2023-06-22T08:43:35;10.23;;;9.43;;
34924;SDS011;21130;51.728;8.748;2023-06-22T08:46:02;10.73;;;9.57;;
34924;SDS011;21130;51.728;8.748;2023-06-22T08:48:29;10.38;;;9.38;;
34924;SDS011;21130;51.728;8.748;2023-06-22T08:50:56;9.13;;;8.35;;
34924;SDS011;21130;51.728;8.748;2023-06-22T08:53:22;9.52;;;8.80;;
34924;SDS011;21130;51.728;8.748;2023-06-22T08:55:50;9.70;;;8.90;;
34924;SDS011;21130;51.728;8.748;2023-06-22T08:58:16;8.32;;;7.63;;
34924;SDS011;21130;51.728;8.748;2023-06-22T09:00:45;8.00;;;7.40;;
34924;SDS011;21130;51.728;8.748;2023-06-22T09:03:12;9.77;;;8.98;;
34924;SDS011;21130;51.728;8.748;2023-06-22T09:05:38;9.82;;;8.93;;
34924;SDS011;21130;51.728;8.748;2023-06-22T09:08:05;10.02;;;9.15;;
34924;SDS011;21130;51.728;8.748;2023-06-22T09:10:31;8.55;;;7.85;;
34924;SDS011;21130;51.728;8.748;2023-06-22T09:12:59;9.52;;;8.80;;
34924;SDS011;21130;51.728;8.748;2023-06-22T09:15:25;9.38;;;8.30;;
34924;SDS011;21130;51.728;8.748;2023-06-22T09:17:52;9.63;;;8.82;;
34924;SDS011;21130;51.728;8.748;2023-06-22T09:20:19;9.70;;;8.82;;
34924;SDS011;21130;51.728;8.748;2023-06-22T09:22:45;7.80;;;7.20;;
34924;SDS011;21130;51.728;8.748;2023-06-22T09:25:12;9.15;;;8.27;;
34924;SDS011;21130;51.728;8.748;2023-06-22T09:27:38;8.68;;;7.88;;
34924;SDS011;21130;51.728;8.748;2023-06-22T09:30:07;7.75;;;7.05;;
34924;SDS011;21130;51.728;8.748;2023-06-22T09:32:34;7.38;;;6.68;;
34924;SDS011;21130;51.728;8.748;2023-06-22T09:35:01;7.20;;;6.50;;
34924;SDS011;21130;51.728;8.748;2023-06-22T09:37:31;7.00;;;6.40;;
34924;SDS011;21130;51.728;8.748;2023-06-22T09:39:57;6.55;;;6.05;;
34924;SDS011;21130;51.728;8.748;2023-06-22T09:42:24;7.35;;;6.68;;
34924;SDS011;21130;51.728;8.748;2023-06-22T09:44:50;7.72;;;6.60;;
34924;SDS011;21130;51.728;8.748;2023-06-22T09:47:18;7.07;;;6.45;;
34924;SDS011;21130;51.728;8.748;2023-06-22T09:49:44;7.25;;;6.75;;
34924;SDS011;21130;51.728;8.748;2023-06-22T09:52:11;6.10;;;5.60;;
34924;SDS011;21130;51.728;8.748;2023-06-22T09:54:37;6.95;;;6.45;;
34924;SDS011;21130;51.728;8.748;2023-06-22T09:57:04;6.80;;;6.25;;
34924;SDS011;21130;51.728;8.748;2023-06-22T09:59:30;7.43;;;6.32;;
34924;SDS011;21130;51.728;8.748;2023-06-22T10:01:57;6.80;;;6.20;;
34924;SDS011;21130;51.728;8.748;2023-06-22T10:04:24;6.65;;;6.05;;
34924;SDS011;21130;51.728;8.748;2023-06-22T10:06:52;6.43;;;5.75;;
34924;SDS011;21130;51.728;8.748;2023-06-22T10:09:18;6.97;;;6.28;;
34924;SDS011;21130;51.728;8.748;2023-06-22T10:11:44;7.32;;;6.70;;
34924;SDS011;21130;51.728;8.748;2023-06-22T10:14:20;6.93;;;6.40;;
34924;SDS011;21130;51.728;8.748;2023-06-22T10:16:47;7.20;;;6.50;;
34924;SDS011;21130;51.728;8.748;2023-06-22T10:19:14;7.40;;;6.80;;
34924;SDS011;21130;51.728;8.748;2023-06-22T10:21:42;7.03;;;6.43;;
34924;SDS011;21130;51.728;8.748;2023-06-22T10:24:08;7.07;;;6.43;;
34924;SDS011;21130;51.728;8.748;2023-06-22T10:26:35;7.15;;;6.43;;
34924;SDS011;21130;51.728;8.748;2023-06-22T10:29:02;7.22;;;6.60;;
34924;SDS011;21130;51.728;8.748;2023-06-22T10:31:29;7.13;;;6.53;;
34924;SDS011;21130;51.728;8.748;2023-06-22T10:33:55;7.40;;;6.78;;
34924;SDS011;21130;51.728;8.748;2023-06-22T10:36:22;7.43;;;6.72;;
34924;SDS011;21130;51.728;8.748;2023-06-22T10:38:50;6.80;;;6.22;;
34924;SDS011;21130;51.728;8.748;2023-06-22T10:41:18;7.45;;;6.78;;
34924;SDS011;21130;51.728;8.748;2023-06-22T10:43:44;7.45;;;6.75;;
34924;SDS011;21130;51.728;8.748;2023-06-22T10:46:11;7.05;;;6.53;;
34924;SDS011;21130;51.728;8.748;2023-06-22T10:48:38;7.85;;;7.15;;
34924;SDS011;21130;51.728;8.748;2023-06-22T10:51:05;7.97;;;7.28;;
34924;SDS011;21130;51.728;8.748;2023-06-22T10:53:31;7.63;;;6.88;;
34924;SDS011;21130;51.728;8.748;2023-06-22T10:55:59;7.80;;;7.15;;
34924;SDS011;21130;51.728;8.748;2023-06-22T10:58:26;7.40;;;6.80;;
34924;SDS011;21130;51.728;8.748;2023-06-22T11:00:52;7.90;;;7.30;;
34924;SDS011;21130;51.728;8.748;2023-06-22T11:03:19;8.10;;;6.65;;
34924;SDS011;21130;51.728;8.748;2023-06-22T11:05:45;15.25;;;8.57;;
34924;SDS011;21130;51.728;8.748;2023-06-22T11:08:12;7.75;;;7.05;;
34924;SDS011;21130;51.728;8.748;2023-06-22T11:13:47;7.80;;;7.07;;
34924;SDS011;21130;51.728;8.748;2023-06-22T11:16:13;8.00;;;7.28;;
34924;SDS011;21130;51.728;8.748;2023-06-22T11:18:41;8.32;;;7.57;;
34924;SDS011;21130;51.728;8.748;2023-06-22T11:21:07;7.82;;;7.05;;
34924;SDS011;21130;51.728;8.748;2023-06-22T11:23:35;8.10;;;7.43;;
34924;SDS011;21130;51.728;8.748;2023-06-22T11:26:02;7.53;;;6.93;;
34924;SDS011;21130;51.728;8.748;2023-06-22T11:28:28;7.82;;;7.10;;
34924;SDS011;21130;51.728;8.748;2023-06-22T11:30:56;7.65;;;7.05;;
34924;SDS011;21130;51.728;8.748;2023-06-22T11:33:22;7.72;;;6.95;;
34924;SDS011;21130;51.728;8.748;2023-06-22T11:35:48;8.07;;;7.20;;
34924;SDS011;21130;51.728;8.748;2023-06-22T11:38:15;7.45;;;6.75;;
34924;SDS011;21130;51.728;8.748;2023-06-22T11:40:42;7.55;;;6.80;;
34924;SDS011;21130;51.728;8.748;2023-06-22T11:43:08;6.75;;;6.18;;
34924;SDS011;21130;51.728;8.748;2023-06-22T11:45:34;6.40;;;5.90;;
34924;SDS011;21130;51.728;8.748;2023-06-22T11:48:02;6.88;;;6.28;;
34924;SDS011;21130;51.728;8.748;2023-06-22T11:50:29;6.80;;;6.30;;
34924;SDS011;21130;51.728;8.748;2023-06-22T11:52:59;6.72;;;6.10;;
34924;SDS011;21130;51.728;8.748;2023-06-22T11:55:25;7.65;;;6.80;;
34924;SDS011;21130;51.728;8.748;2023-06-22T11:57:53;6.50;;;6.00;;
34924;SDS011;21130;51.728;8.748;2023-06-22T12:00:21;7.72;;;7.05;;
34924;SDS011;21130;51.728;8.748;2023-06-22T12:02:49;7.22;;;6.63;;
34924;SDS011;21130;51.728;8.748;2023-06-22T12:05:17;7.43;;;6.82;;
34924;SDS011;21130;51.728;8.748;2023-06-22T12:07:45;7.55;;;6.85;;
34924;SDS011;21130;51.728;8.748;2023-06-22T12:10:11;8.65;;;8.05;;
34924;SDS011;21130;51.728;8.748;2023-06-22T12:12:38;9.20;;;8.30;;
34924;SDS011;21130;51.728;8.748;2023-06-22T12:15:05;8.68;;;7.80;;
34924;SDS011;21130;51.728;8.748;2023-06-22T12:17:32;9.13;;;8.32;;
34924;SDS011;21130;51.728;8.748;2023-06-22T12:19:59;9.45;;;8.52;;
34924;SDS011;21130;51.728;8.748;2023-06-22T12:22:28;8.82;;;8.13;;
34924;SDS011;21130;51.728;8.748;2023-06-22T12:24:54;9.40;;;8.60;;
34924;SDS011;21130;51.728;8.748;2023-06-22T12:27:20;9.35;;;8.52;;
34924;SDS011;21130;51.728;8.748;2023-06-22T12:29:47;9.23;;;8.45;;
34924;SDS011;21130;51.728;8.748;2023-06-22T12:32:14;10.85;;;9.73;;
34924;SDS011;21130;51.728;8.748;2023-06-22T12:34:41;10.90;;;9.88;;
34924;SDS011;21130;51.728;8.748;2023-06-22T12:37:08;10.52;;;9.60;;
34924;SDS011;21130;51.728;8.748;2023-06-22T12:39:36;10.85;;;9.95;;
34924;SDS011;21130;51.728;8.748;2023-06-22T12:42:03;10.88;;;9.98;;
34924;SDS011;21130;51.728;8.748;2023-06-22T12:44:30;11.95;;;10.75;;
34924;SDS011;21130;51.728;8.748;2023-06-22T12:46:56;12.45;;;11.23;;
34924;SDS011;21130;51.728;8.748;2023-06-22T12:49:23;14.43;;;11.63;;
34924;SDS011;21130;51.728;8.748;2023-06-22T12:51:49;12.55;;;11.40;;
34924;SDS011;21130;51.728;8.748;2023-06-22T12:54:16;12.48;;;11.38;;
34924;SDS011;21130;51.728;8.748;2023-06-22T12:56:43;13.88;;;12.63;;
34924;SDS011;21130;51.728;8.748;2023-06-22T12:59:10;14.82;;;13.32;;
34924;SDS011;21130;51.728;8.748;2023-06-22T13:01:37;14.90;;;13.48;;
34924;SDS011;21130;51.728;8.748;2023-06-22T13:04:03;15.20;;;13.80;;
34924;SDS011;21130;51.728;8.748;2023-06-22T13:06:30;15.63;;;14.15;;
34924;SDS011;21130;51.728;8.748;2023-06-22T13:08:56;15.18;;;13.77;;
34924;SDS011;21130;51.728;8.748;2023-06-22T13:11:23;16.65;;;15.10;;
34924;SDS011;21130;51.728;8.748;2023-06-22T13:13:51;16.08;;;14.52;;
34924;SDS011;21130;51.728;8.748;2023-06-22T13:16:17;17.83;;;16.05;;
34924;SDS011;21130;51.728;8.748;2023-06-22T13:18:44;18.98;;;17.27;;
34924;SDS011;21130;51.728;8.748;2023-06-22T13:21:11;18.92;;;17.35;;
34924;SDS011;21130;51.728;8.748;2023-06-22T13:23:37;19.30;;;17.60;;
34924;SDS011;21130;51.728;8.748;2023-06-22T13:26:03;19.52;;;17.77;;
34924;SDS011;21130;51.728;8.748;2023-06-22T13:28:30;19.63;;;17.70;;
34924;SDS011;21130;51.728;8.748;2023-06-22T13:30:58;18.55;;;16.98;;
34924;SDS011;21130;51.728;8.748;2023-06-22T13:33:24;19.27;;;17.65;;
34924;SDS011;21130;51.728;8.748;2023-06-22T13:35:51;20.27;;;18.38;;
34924;SDS011;21130;51.728;8.748;2023-06-22T13:38:17;21.15;;;18.92;;
34924;SDS011;21130;51.728;8.748;2023-06-22T13:40:44;22.65;;;20.02;;
34924;SDS011;21130;51.728;8.748;2023-06-22T13:43:12;23.17;;;20.90;;
34924;SDS011;21130;51.728;8.748;2023-06-22T13:45:39;23.55;;;21.08;;
34924;SDS011;21130;51.728;8.748;2023-06-22T13:48:07;25.15;;;22.65;;
34924;SDS011;21130;51.728;8.748;2023-06-22T13:50:33;23.80;;;21.52;;
34924;SDS011;21130;51.728;8.748;2023-06-22T13:53:00;26.88;;;24.02;;
34924;SDS011;21130;51.728;8.748;2023-06-22T13:55:26;28.60;;;25.48;;
34924;SDS011;21130;51.728;8.748;2023-06-22T13:57:52;26.75;;;24.25;;
34924;SDS011;21130;51.728;8.748;2023-06-22T14:00:19;27.75;;;25.10;;
34924;SDS011;21130;51.728;8.748;2023-06-22T14:02:46;27.73;;;24.92;;
34924;SDS011;21130;51.728;8.748;2023-06-22T14:05:13;29.73;;;26.48;;
34924;SDS011;21130;51.728;8.748;2023-06-22T14:07:40;29.08;;;26.15;;
34924;SDS011;21130;51.728;8.748;2023-06-22T14:10:06;31.17;;;28.08;;
34924;SDS011;21130;51.728;8.748;2023-06-22T14:12:33;31.70;;;28.70;;
34924;SDS011;21130;51.728;8.748;2023-06-22T14:15:00;32.40;;;29.38;;
34924;SDS011;21130;51.728;8.748;2023-06-22T14:17:26;31.65;;;28.70;;
34924;SDS011;21130;51.728;8.748;2023-06-22T14:19:52;33.30;;;30.10;;
34924;SDS011;21130;51.728;8.748;2023-06-22T14:22:21;32.28;;;29.17;;
34924;SDS011;21130;51.728;8.748;2023-06-22T14:24:48;31.17;;;28.13;;
34924;SDS011;21130;51.728;8.748;2023-06-22T14:27:15;32.95;;;29.52;;
34924;SDS011;21130;51.728;8.748;2023-06-22T14:29:42;33.28;;;30.00;;
34924;SDS011;21130;51.728;8.748;2023-06-22T14:32:09;32.30;;;28.95;;
34924;SDS011;21130;51.728;8.748;2023-06-22T14:34:35;33.88;;;30.63;;